Аэропорт: Шпаковское. Ставрополь

ICAO: URMT

METAR:
2019-07-24 01:00:00
URMT 240100Z 11003MPS CAVOK 16/13 Q1010 R07/010070 NOSIG RMK QFE718
METAR:
2019-07-23 23:00:00
TAF URMT 232300Z 2400/2409 12003G08MPS 9999 SCT020 TEMPO 2400/2403 3100 BR SCT011 BKN020